OLBA/BEY METAR and TAF weather

Enter ICAO airport designator
Station Type Date Time Source
OLBA METAR 2021/05/11 22:00 UTC NOAA

OLBA 112200Z 14003KT CAVOK 21/12 Q1011 NOSIG


Station Type Date Time Source
OLBA Decoded METAR 2021/05/11 22:00 UTC NOAA

Beyrouth Aeroport , Lebanon (OLBA) 33-49N 035-29E 19M
May 11, 2021 - 06:00 PM EDT / 2021.05.11 2200 UTC
Wind: from the SE (140 degrees) at 3 MPH (3 KT):0
Visibility: greater than 7 mile(s):0
Temperature: 69 F (21 C)
Dew Point: 53 F (12 C)
Relative Humidity: 56%
Pressure (altimeter): 29.85 in. Hg (1011 hPa)
ob: OLBA 112200Z 14003KT CAVOK 21/12 Q1011 NOSIG
cycle: 22

Station Type Date Time Source
OLBA TAF 2021/05/11 18:27 UTC NOAA

TAF TAF OLBA 111600Z 1118/1224 14004KT CAVOK
BECMG 1206/1208 24010KT 8000 FEW035

Example: see airport list